createdAt,value
2022-11-26T00:00:05.376Z,15.56
2022-11-26T00:00:15.376Z,15.56
2022-11-26T00:00:25.377Z,15.54
2022-11-26T00:00:35.378Z,15.56
2022-11-26T00:00:45.380Z,15.54
2022-11-26T00:00:55.382Z,15.54
2022-11-26T00:01:05.380Z,15.56
2022-11-26T00:01:15.368Z,15.56
2022-11-26T00:01:25.385Z,15.54
2022-11-26T00:01:35.385Z,15.56
2022-11-26T00:01:45.417Z,15.56
2022-11-26T00:01:55.418Z,15.54
2022-11-26T00:02:05.448Z,15.56
2022-11-26T00:02:15.582Z,15.54
2022-11-26T00:02:25.538Z,15.54
2022-11-26T00:02:35.568Z,15.54
2022-11-26T00:02:45.451Z,15.54
2022-11-26T00:02:55.471Z,15.54
2022-11-26T00:03:05.561Z,15.54
2022-11-26T00:03:15.423Z,15.54
2022-11-26T00:03:25.480Z,15.56
2022-11-26T00:03:35.494Z,15.54
2022-11-26T00:03:45.470Z,15.56
2022-11-26T00:03:55.403Z,15.54
2022-11-26T00:04:05.399Z,15.54
2022-11-26T00:04:15.398Z,15.54
2022-11-26T00:04:25.399Z,15.54
2022-11-26T00:04:35.701Z,15.59
2022-11-26T00:04:45.409Z,15.54
2022-11-26T00:04:55.402Z,15.56
2022-11-26T00:05:05.404Z,15.56
2022-11-26T00:05:15.407Z,15.54
2022-11-26T00:05:25.405Z,15.56
2022-11-26T00:05:35.404Z,15.54
2022-11-26T00:05:45.409Z,15.56
2022-11-26T00:05:55.408Z,15.54
2022-11-26T00:06:05.411Z,15.56
2022-11-26T00:06:15.411Z,15.56
2022-11-26T00:06:25.411Z,15.56
2022-11-26T00:06:35.410Z,15.56
2022-11-26T00:06:45.419Z,15.54
2022-11-26T00:06:55.412Z,15.56
2022-11-26T00:07:05.414Z,15.54
2022-11-26T00:07:15.487Z,15.54
2022-11-26T00:07:25.477Z,15.54
2022-11-26T00:07:35.452Z,15.54
2022-11-26T00:07:45.466Z,15.54
2022-11-26T00:07:55.464Z,15.54
2022-11-26T00:08:05.421Z,15.56
2022-11-26T00:08:15.417Z,15.54
2022-11-26T00:08:25.430Z,15.54
2022-11-26T00:08:35.423Z,15.54
2022-11-26T00:08:45.432Z,15.54
2022-11-26T00:08:55.424Z,15.56
2022-11-26T00:09:05.427Z,15.54
2022-11-26T00:09:15.424Z,15.54
2022-11-26T00:09:25.425Z,15.54
2022-11-26T00:09:35.429Z,15.54
2022-11-26T00:09:45.424Z,15.54
2022-11-26T00:09:55.433Z,15.56
2022-11-26T00:10:05.433Z,15.56
2022-11-26T00:10:15.429Z,15.54
2022-11-26T00:10:25.432Z,15.54
2022-11-26T00:10:35.432Z,15.54
2022-11-26T00:10:45.433Z,15.54
2022-11-26T00:10:55.437Z,15.54
2022-11-26T00:11:05.419Z,15.54
2022-11-26T00:11:15.433Z,15.52
2022-11-26T00:11:25.441Z,15.54
2022-11-26T00:11:35.436Z,15.52
2022-11-26T00:11:45.439Z,15.54
2022-11-26T00:11:55.438Z,15.54
2022-11-26T00:12:05.438Z,15.54
2022-11-26T00:12:15.440Z,15.52
2022-11-26T00:12:25.444Z,15.52
2022-11-26T00:12:35.447Z,15.54
2022-11-26T00:12:45.444Z,15.54
2022-11-26T00:12:55.444Z,15.56
2022-11-26T00:13:05.443Z,15.52
2022-11-26T00:13:15.446Z,15.54
2022-11-26T00:13:25.442Z,15.51
2022-11-26T00:13:35.444Z,15.54
2022-11-26T00:13:45.465Z,15.54
2022-11-26T00:13:55.444Z,15.54
2022-11-26T00:14:05.447Z,15.52
2022-11-26T00:14:15.447Z,15.52
2022-11-26T00:14:25.431Z,15.52
2022-11-26T00:14:35.650Z,15.54
2022-11-26T00:14:45.451Z,15.54
2022-11-26T00:14:55.456Z,15.52
2022-11-26T00:15:05.454Z,15.52
2022-11-26T00:15:15.454Z,15.54
2022-11-26T00:15:25.452Z,15.54
2022-11-26T00:15:35.454Z,15.56
2022-11-26T00:15:45.456Z,15.54
2022-11-26T00:15:55.437Z,15.52
2022-11-26T00:16:05.517Z,15.54
2022-11-26T00:16:15.488Z,15.52
2022-11-26T00:16:25.533Z,15.54
2022-11-26T00:16:35.609Z,15.54
2022-11-26T00:16:45.515Z,15.52
2022-11-26T00:16:55.564Z,15.54
2022-11-26T00:17:05.465Z,15.54
2022-11-26T00:17:15.463Z,15.54
2022-11-26T00:17:25.466Z,15.54
2022-11-26T00:17:35.447Z,15.54
2022-11-26T00:17:45.466Z,15.56
2022-11-26T00:17:55.468Z,15.54
2022-11-26T00:18:05.468Z,15.54
2022-11-26T00:18:15.451Z,15.54
2022-11-26T00:18:25.467Z,15.54
2022-11-26T00:18:35.469Z,15.52
2022-11-26T00:18:45.557Z,15.52
2022-11-26T00:18:55.476Z,15.54
2022-11-26T00:19:05.473Z,15.52
2022-11-26T00:19:15.473Z,15.54
2022-11-26T00:19:25.472Z,15.56
2022-11-26T00:19:35.477Z,15.54
2022-11-26T00:19:45.475Z,15.56
2022-11-26T00:19:55.474Z,15.54
2022-11-26T00:20:05.482Z,15.54
2022-11-26T00:20:15.476Z,15.56
2022-11-26T00:20:25.477Z,15.52
2022-11-26T00:20:35.476Z,15.54
2022-11-26T00:20:45.475Z,15.54
2022-11-26T00:20:55.493Z,15.54
2022-11-26T00:21:05.482Z,15.54
2022-11-26T00:21:15.480Z,15.54
2022-11-26T00:21:25.488Z,15.54
2022-11-26T00:21:35.480Z,15.54
2022-11-26T00:21:45.484Z,15.54
2022-11-26T00:21:55.486Z,15.52
2022-11-26T00:22:05.486Z,15.54
2022-11-26T00:22:15.486Z,15.52
2022-11-26T00:22:25.498Z,15.52
2022-11-26T00:22:35.487Z,15.54
2022-11-26T00:22:45.473Z,15.54
2022-11-26T00:22:55.491Z,15.54
2022-11-26T00:23:05.473Z,15.52
2022-11-26T00:23:15.490Z,15.52
2022-11-26T00:23:25.498Z,15.54
2022-11-26T00:23:35.495Z,15.52
2022-11-26T00:23:45.494Z,15.54
2022-11-26T00:23:55.506Z,15.52
2022-11-26T00:24:05.495Z,15.54
2022-11-26T00:24:15.497Z,15.52
2022-11-26T00:24:25.495Z,15.52
2022-11-26T00:24:35.662Z,15.54
2022-11-26T00:24:45.501Z,15.52
2022-11-26T00:24:55.499Z,15.52
2022-11-26T00:25:05.503Z,15.52
2022-11-26T00:25:15.503Z,15.52
2022-11-26T00:25:25.499Z,15.52
2022-11-26T00:25:35.505Z,15.52
2022-11-26T00:25:45.503Z,15.52
2022-11-26T00:25:55.501Z,15.52
2022-11-26T00:26:05.504Z,15.52
2022-11-26T00:26:15.504Z,15.54
2022-11-26T00:26:25.506Z,15.54
2022-11-26T00:26:35.511Z,15.54
2022-11-26T00:26:45.516Z,15.52
2022-11-26T00:26:55.508Z,15.54
2022-11-26T00:27:05.513Z,15.51
2022-11-26T00:27:15.507Z,15.54
2022-11-26T00:27:25.507Z,15.52
2022-11-26T00:27:35.509Z,15.52
2022-11-26T00:27:45.517Z,15.52
2022-11-26T00:27:55.511Z,15.54
2022-11-26T00:28:05.512Z,15.52
2022-11-26T00:28:15.512Z,15.52
2022-11-26T00:28:25.518Z,15.52
2022-11-26T00:28:35.518Z,15.51
2022-11-26T00:28:45.529Z,15.51
2022-11-26T00:28:55.517Z,15.52
2022-11-26T00:29:05.516Z,15.54
2022-11-26T00:29:15.519Z,15.52
2022-11-26T00:29:25.519Z,15.51
2022-11-26T00:29:35.516Z,15.54
2022-11-26T00:29:45.517Z,15.52
2022-11-26T00:29:55.518Z,15.51
2022-11-26T00:30:05.523Z,15.51
2022-11-26T00:30:15.504Z,15.51
2022-11-26T00:30:25.521Z,15.52
2022-11-26T00:30:35.503Z,15.52
2022-11-26T00:30:45.521Z,15.52
2022-11-26T00:30:55.523Z,15.52
2022-11-26T00:31:05.524Z,15.52
2022-11-26T00:31:15.608Z,15.54
2022-11-26T00:31:25.570Z,15.52
2022-11-26T00:31:35.615Z,15.54
2022-11-26T00:31:45.648Z,15.52
2022-11-26T00:31:55.633Z,15.52
2022-11-26T00:32:05.618Z,15.52
2022-11-26T00:32:15.555Z,15.52
2022-11-26T00:32:25.535Z,15.52
2022-11-26T00:32:35.533Z,15.56
2022-11-26T00:32:45.531Z,15.52
2022-11-26T00:32:55.535Z,15.54
2022-11-26T00:33:05.534Z,15.52
2022-11-26T00:33:15.554Z,15.54
2022-11-26T00:33:25.542Z,15.52
2022-11-26T00:33:35.537Z,15.52
2022-11-26T00:33:45.549Z,15.52
2022-11-26T00:33:55.537Z,15.52
2022-11-26T00:34:05.536Z,15.52
2022-11-26T00:34:15.538Z,15.52
2022-11-26T00:34:25.540Z,15.54
2022-11-26T00:34:35.920Z,15.52
2022-11-26T00:34:45.539Z,15.51
2022-11-26T00:34:55.549Z,15.51
2022-11-26T00:35:05.562Z,15.52
2022-11-26T00:35:15.543Z,15.51
2022-11-26T00:35:25.543Z,15.52
2022-11-26T00:35:35.546Z,15.51
2022-11-26T00:35:45.576Z,15.52
2022-11-26T00:35:55.548Z,15.51
2022-11-26T00:36:05.550Z,15.51
2022-11-26T00:36:15.547Z,15.52
2022-11-26T00:36:25.548Z,15.52
2022-11-26T00:36:35.551Z,15.52
2022-11-26T00:36:45.551Z,15.52
2022-11-26T00:36:55.562Z,15.51
2022-11-26T00:37:05.552Z,15.52
2022-11-26T00:37:15.551Z,15.49
2022-11-26T00:37:25.555Z,15.52
2022-11-26T00:37:35.552Z,15.51
2022-11-26T00:37:45.555Z,15.51
2022-11-26T00:37:55.535Z,15.51
2022-11-26T00:38:05.555Z,15.52
2022-11-26T00:38:15.560Z,15.52
2022-11-26T00:38:25.539Z,15.52
2022-11-26T00:38:35.558Z,15.51
2022-11-26T00:38:45.572Z,15.52
2022-11-26T00:38:55.559Z,15.52
2022-11-26T00:39:05.564Z,15.52
2022-11-26T00:39:15.562Z,15.52
2022-11-26T00:39:25.565Z,15.51
2022-11-26T00:39:35.563Z,15.51
2022-11-26T00:39:45.591Z,15.51
2022-11-26T00:39:55.566Z,15.52
2022-11-26T00:40:05.548Z,15.51
2022-11-26T00:40:15.564Z,15.51
2022-11-26T00:40:25.567Z,15.51
2022-11-26T00:40:35.567Z,15.51
2022-11-26T00:40:45.570Z,15.52
2022-11-26T00:40:55.570Z,15.51
2022-11-26T00:41:05.573Z,15.52
2022-11-26T00:41:15.571Z,15.52
2022-11-26T00:41:25.572Z,15.51
2022-11-26T00:41:35.577Z,15.51
2022-11-26T00:41:45.574Z,15.51
2022-11-26T00:41:55.574Z,15.51
2022-11-26T00:42:05.561Z,15.51
2022-11-26T00:42:15.577Z,15.51
2022-11-26T00:42:25.578Z,15.52
2022-11-26T00:42:35.582Z,15.52
2022-11-26T00:42:45.582Z,15.49
2022-11-26T00:43:01.220Z,15.52
2022-11-26T00:43:06.585Z,15.51
2022-11-26T00:43:15.583Z,15.52
2022-11-26T00:43:25.585Z,15.49
2022-11-26T00:43:35.586Z,15.51
2022-11-26T00:43:45.607Z,15.51
2022-11-26T00:43:55.587Z,15.51
2022-11-26T00:44:05.619Z,15.52
2022-11-26T00:44:15.588Z,15.51
2022-11-26T00:44:25.572Z,15.51
2022-11-26T00:44:35.868Z,15.51
2022-11-26T00:44:45.570Z,15.51
2022-11-26T00:44:55.591Z,15.51
2022-11-26T00:45:05.591Z,15.51
2022-11-26T00:45:15.591Z,15.49
2022-11-26T00:45:25.610Z,15.51
2022-11-26T00:45:35.635Z,15.51
2022-11-26T00:45:45.625Z,15.49
2022-11-26T00:45:55.667Z,15.51
2022-11-26T00:46:05.648Z,15.51
2022-11-26T00:46:15.667Z,15.49
2022-11-26T00:46:25.662Z,15.51
2022-11-26T00:46:35.593Z,15.51
2022-11-26T00:46:45.595Z,15.49
2022-11-26T00:46:55.599Z,15.49
2022-11-26T00:47:05.580Z,15.51
2022-11-26T00:47:15.598Z,15.52
2022-11-26T00:47:25.600Z,15.51
2022-11-26T00:47:35.599Z,15.51
2022-11-26T00:47:45.600Z,15.51
2022-11-26T00:47:55.599Z,15.51
2022-11-26T00:48:05.601Z,15.51
2022-11-26T00:48:15.587Z,15.49
2022-11-26T00:48:25.600Z,15.51
2022-11-26T00:48:35.603Z,15.49
2022-11-26T00:48:45.617Z,15.49
2022-11-26T00:48:55.607Z,15.49
2022-11-26T00:49:05.606Z,15.51
2022-11-26T00:49:15.613Z,15.49
2022-11-26T00:49:25.607Z,15.49
2022-11-26T00:49:35.607Z,15.51
2022-11-26T00:49:45.609Z,15.48
2022-11-26T00:49:55.608Z,15.49
2022-11-26T00:50:05.609Z,15.51
2022-11-26T00:50:15.611Z,15.49
2022-11-26T00:50:25.609Z,15.51
2022-11-26T00:50:35.611Z,15.48
2022-11-26T00:50:45.613Z,15.49
2022-11-26T00:50:55.614Z,15.51
2022-11-26T00:51:05.626Z,15.49
2022-11-26T00:51:15.616Z,15.49
2022-11-26T00:51:25.616Z,15.49
2022-11-26T00:51:35.618Z,15.49
2022-11-26T00:51:45.624Z,15.49
2022-11-26T00:51:55.650Z,15.51
2022-11-26T00:52:05.619Z,15.49
2022-11-26T00:52:15.621Z,15.49
2022-11-26T00:52:25.607Z,15.49
2022-11-26T00:52:35.624Z,15.48
2022-11-26T00:52:45.621Z,15.48
2022-11-26T00:52:55.622Z,15.49
2022-11-26T00:53:05.626Z,15.49
2022-11-26T00:53:15.625Z,15.49
2022-11-26T00:53:25.627Z,15.49
2022-11-26T00:53:35.633Z,15.49
2022-11-26T00:53:45.663Z,15.49
2022-11-26T00:53:55.631Z,15.49
2022-11-26T00:54:05.611Z,15.49
2022-11-26T00:54:15.630Z,15.49
2022-11-26T00:54:25.640Z,15.49
2022-11-26T00:54:35.876Z,15.49
2022-11-26T00:54:45.635Z,15.49
2022-11-26T00:54:55.637Z,15.49
2022-11-26T00:55:05.636Z,15.49
2022-11-26T00:55:15.637Z,15.51
2022-11-26T00:55:25.640Z,15.49
2022-11-26T00:55:35.649Z,15.51
2022-11-26T00:55:45.640Z,15.51
2022-11-26T00:55:55.646Z,15.51
2022-11-26T00:56:05.640Z,15.51
2022-11-26T00:56:15.641Z,15.51
2022-11-26T00:56:25.646Z,15.48
2022-11-26T00:56:38.136Z,15.49
2022-11-26T00:56:45.645Z,15.49
2022-11-26T00:56:55.645Z,15.51
2022-11-26T00:57:05.647Z,15.51
2022-11-26T00:57:15.645Z,15.49
2022-11-26T00:57:25.643Z,15.49
2022-11-26T00:57:35.645Z,15.51
2022-11-26T00:57:45.649Z,15.51
2022-11-26T00:57:55.645Z,15.49
2022-11-26T00:58:05.648Z,15.49
2022-11-26T00:58:15.650Z,15.48
2022-11-26T00:58:25.650Z,15.49
2022-11-26T00:58:35.651Z,15.49
2022-11-26T00:58:45.653Z,15.48
2022-11-26T00:58:55.655Z,15.49
2022-11-26T00:59:05.656Z,15.49
2022-11-26T00:59:15.655Z,15.48
2022-11-26T00:59:25.655Z,15.49
2022-11-26T00:59:35.658Z,15.49
2022-11-26T00:59:45.657Z,15.51
2022-11-26T00:59:55.661Z,15.49
2022-11-26T01:00:05.660Z,15.49
2022-11-26T01:00:15.657Z,15.49
2022-11-26T01:00:25.659Z,15.48
2022-11-26T01:00:35.774Z,15.49
2022-11-26T01:00:45.732Z,15.48
2022-11-26T01:00:55.726Z,15.48
2022-11-26T01:01:05.691Z,15.49
2022-11-26T01:01:15.717Z,15.48
2022-11-26T01:01:25.794Z,15.49
2022-11-26T01:01:35.742Z,15.49
2022-11-26T01:01:45.712Z,15.48
2022-11-26T01:01:55.709Z,15.48
2022-11-26T01:02:05.743Z,15.49
2022-11-26T01:02:15.737Z,15.49
2022-11-26T01:02:25.746Z,15.49
2022-11-26T01:02:35.709Z,15.49
2022-11-26T01:02:45.757Z,15.51
2022-11-26T01:02:55.677Z,15.49
2022-11-26T01:03:05.677Z,15.51
2022-11-26T01:03:15.679Z,15.49
2022-11-26T01:03:25.679Z,15.49
2022-11-26T01:03:35.682Z,15.49
2022-11-26T01:03:45.727Z,15.49
2022-11-26T01:03:55.710Z,15.49
2022-11-26T01:04:05.665Z,15.49
2022-11-26T01:04:15.684Z,15.48
2022-11-26T01:04:25.687Z,15.49
2022-11-26T01:04:36.061Z,15.51
2022-11-26T01:04:45.691Z,15.49
2022-11-26T01:04:55.687Z,15.48
2022-11-26T01:05:05.685Z,15.49
2022-11-26T01:05:15.693Z,15.49
2022-11-26T01:05:25.688Z,15.49
2022-11-26T01:05:35.692Z,15.49
2022-11-26T01:05:45.694Z,15.49
2022-11-26T01:05:55.692Z,15.49
2022-11-26T01:06:05.689Z,15.49
2022-11-26T01:06:15.677Z,15.48
2022-11-26T01:06:25.691Z,15.46
2022-11-26T01:06:35.694Z,15.48
2022-11-26T01:06:45.692Z,15.48
2022-11-26T01:06:55.693Z,15.49
2022-11-26T01:07:05.695Z,15.48
2022-11-26T01:07:15.737Z,15.48
2022-11-26T01:07:25.744Z,15.49
2022-11-26T01:07:35.786Z,15.48
2022-11-26T01:07:45.784Z,15.48
2022-11-26T01:07:55.773Z,15.48
2022-11-26T01:08:05.698Z,15.48
2022-11-26T01:08:15.696Z,15.49
2022-11-26T01:08:25.699Z,15.49
2022-11-26T01:08:35.698Z,15.48
2022-11-26T01:08:45.701Z,15.49
2022-11-26T01:08:55.706Z,15.48
2022-11-26T01:09:05.703Z,15.49
2022-11-26T01:09:15.704Z,15.49
2022-11-26T01:09:25.701Z,15.48
2022-11-26T01:09:35.705Z,15.48
2022-11-26T01:09:45.703Z,15.49
2022-11-26T01:09:55.706Z,15.48
2022-11-26T01:10:05.706Z,15.48
2022-11-26T01:10:15.707Z,15.48
2022-11-26T01:10:25.710Z,15.49
2022-11-26T01:10:35.708Z,15.48
2022-11-26T01:10:45.708Z,15.49
2022-11-26T01:10:55.718Z,15.48
2022-11-26T01:11:05.712Z,15.49
2022-11-26T01:11:15.712Z,15.48
2022-11-26T01:11:25.716Z,15.49
2022-11-26T01:11:35.722Z,15.48
2022-11-26T01:11:48.700Z,15.48
2022-11-26T01:11:56.717Z,15.46
2022-11-26T01:12:05.721Z,15.48
2022-11-26T01:12:15.716Z,15.49
2022-11-26T01:12:25.723Z,15.48
2022-11-26T01:12:35.720Z,15.48
2022-11-26T01:12:45.724Z,15.48
2022-11-26T01:12:55.723Z,15.49
2022-11-26T01:13:05.726Z,15.48
2022-11-26T01:13:15.722Z,15.48
2022-11-26T01:13:25.722Z,15.48
2022-11-26T01:13:35.725Z,15.48
2022-11-26T01:13:45.739Z,15.49
2022-11-26T01:13:55.725Z,15.48
2022-11-26T01:14:05.726Z,15.49
2022-11-26T01:14:15.725Z,15.48
2022-11-26T01:14:25.726Z,15.49
2022-11-26T01:14:35.918Z,15.45
2022-11-26T01:14:45.729Z,15.48
2022-11-26T01:14:55.729Z,15.49
2022-11-26T01:15:05.731Z,15.48
2022-11-26T01:15:15.732Z,15.49
2022-11-26T01:15:25.732Z,15.48
2022-11-26T01:15:35.736Z,15.48
2022-11-26T01:15:45.733Z,15.48
2022-11-26T01:15:55.733Z,15.48
2022-11-26T01:16:05.814Z,15.48
2022-11-26T01:16:15.807Z,15.48
2022-11-26T01:16:25.810Z,15.49
2022-11-26T01:16:35.868Z,15.49
2022-11-26T01:16:45.787Z,15.48
2022-11-26T01:16:55.793Z,15.48
2022-11-26T01:17:05.742Z,15.46
2022-11-26T01:17:15.743Z,15.49
2022-11-26T01:17:25.742Z,15.49
2022-11-26T01:17:35.730Z,15.49
2022-11-26T01:17:45.763Z,15.46
2022-11-26T01:17:55.747Z,15.48
2022-11-26T01:18:05.748Z,15.48
2022-11-26T01:18:15.751Z,15.48
2022-11-26T01:18:25.752Z,15.48
2022-11-26T01:18:35.751Z,15.48
2022-11-26T01:18:45.789Z,15.48
2022-11-26T01:18:55.748Z,15.48
2022-11-26T01:19:05.756Z,15.48
2022-11-26T01:19:15.749Z,15.46
2022-11-26T01:19:25.752Z,15.46
2022-11-26T01:19:35.758Z,15.49
2022-11-26T01:19:45.752Z,15.48
2022-11-26T01:19:55.736Z,15.48
2022-11-26T01:20:05.759Z,15.48
2022-11-26T01:20:15.751Z,15.48
2022-11-26T01:20:25.811Z,15.48
2022-11-26T01:20:35.754Z,15.49
2022-11-26T01:20:45.757Z,15.48
2022-11-26T01:20:55.757Z,15.49
2022-11-26T01:21:05.757Z,15.49
2022-11-26T01:21:15.764Z,15.48
2022-11-26T01:21:25.761Z,15.49
2022-11-26T01:21:35.766Z,15.49
2022-11-26T01:21:45.762Z,15.49
2022-11-26T01:21:55.763Z,15.51
2022-11-26T01:22:05.764Z,15.49
2022-11-26T01:22:15.763Z,15.51
2022-11-26T01:22:25.765Z,15.49
2022-11-26T01:22:35.775Z,15.49
2022-11-26T01:22:45.767Z,15.51
2022-11-26T01:22:55.797Z,15.51
2022-11-26T01:23:05.775Z,15.49
2022-11-26T01:23:15.767Z,15.49
2022-11-26T01:23:25.768Z,15.49
2022-11-26T01:23:35.773Z,15.49
2022-11-26T01:23:45.770Z,15.49
2022-11-26T01:23:55.780Z,15.49
2022-11-26T01:24:05.772Z,15.49
2022-11-26T01:24:15.771Z,15.49
2022-11-26T01:24:25.771Z,15.49
2022-11-26T01:24:36.085Z,15.48
2022-11-26T01:24:45.775Z,15.49
2022-11-26T01:24:55.777Z,15.48
2022-11-26T01:25:05.778Z,15.49
2022-11-26T01:25:15.780Z,15.51
2022-11-26T01:25:25.778Z,15.48
2022-11-26T01:25:35.779Z,15.48
2022-11-26T01:25:45.782Z,15.49
2022-11-26T01:25:55.784Z,15.48
2022-11-26T01:26:06.727Z,15.48
2022-11-26T01:26:15.784Z,15.49
2022-11-26T01:26:25.785Z,15.48
2022-11-26T01:26:35.785Z,15.49
2022-11-26T01:26:45.786Z,15.49
2022-11-26T01:26:55.786Z,15.49
2022-11-26T01:27:05.786Z,15.49
2022-11-26T01:27:15.786Z,15.49
2022-11-26T01:27:25.788Z,15.48
2022-11-26T01:27:35.789Z,15.49
2022-11-26T01:27:45.792Z,15.48
2022-11-26T01:27:55.794Z,15.48
2022-11-26T01:28:05.793Z,15.48
2022-11-26T01:28:15.796Z,15.49
2022-11-26T01:28:25.796Z,15.48
2022-11-26T01:28:35.795Z,15.48
2022-11-26T01:28:45.845Z,15.49
2022-11-26T01:28:55.807Z,15.49
2022-11-26T01:29:05.796Z,15.49
2022-11-26T01:29:15.796Z,15.49
2022-11-26T01:29:25.799Z,15.48
2022-11-26T01:29:35.800Z,15.49
2022-11-26T01:29:45.799Z,15.49
2022-11-26T01:29:55.805Z,15.49
2022-11-26T01:30:05.800Z,15.49
2022-11-26T01:30:15.802Z,15.48
2022-11-26T01:30:25.804Z,15.51
2022-11-26T01:30:35.810Z,15.49
2022-11-26T01:30:45.803Z,15.49
2022-11-26T01:30:55.812Z,15.49
2022-11-26T01:31:05.805Z,15.49
2022-11-26T01:31:15.856Z,15.48
2022-11-26T01:31:25.871Z,15.51
2022-11-26T01:31:35.929Z,15.49
2022-11-26T01:31:45.890Z,15.49
2022-11-26T01:31:55.854Z,15.49
2022-11-26T01:32:05.866Z,15.49
2022-11-26T01:32:15.816Z,15.48
2022-11-26T01:32:29.425Z,15.49
2022-11-26T01:32:35.813Z,15.49
2022-11-26T01:32:45.815Z,15.49
2022-11-26T01:32:55.828Z,15.49
2022-11-26T01:33:05.812Z,15.49
2022-11-26T01:33:15.823Z,15.49
2022-11-26T01:33:25.815Z,15.48
2022-11-26T01:33:35.822Z,15.49
2022-11-26T01:33:45.817Z,15.49
2022-11-26T01:33:55.831Z,15.48
2022-11-26T01:34:05.821Z,15.48
2022-11-26T01:34:15.821Z,15.49
2022-11-26T01:34:25.824Z,15.49
2022-11-26T01:34:36.030Z,15.49
2022-11-26T01:34:45.846Z,15.49
2022-11-26T01:34:55.824Z,15.46
2022-11-26T01:35:05.828Z,15.49
2022-11-26T01:35:15.828Z,15.49
2022-11-26T01:35:25.827Z,15.48
2022-11-26T01:35:35.829Z,15.46
2022-11-26T01:35:45.830Z,15.48
2022-11-26T01:35:55.832Z,15.49
2022-11-26T01:36:05.831Z,15.48
2022-11-26T01:36:15.831Z,15.48
2022-11-26T01:36:25.834Z,15.48
2022-11-26T01:36:35.831Z,15.48
2022-11-26T01:36:45.834Z,15.48
2022-11-26T01:36:55.832Z,15.48
2022-11-26T01:37:05.835Z,15.48
2022-11-26T01:37:15.836Z,15.48
2022-11-26T01:37:25.839Z,15.48
2022-11-26T01:37:35.837Z,15.48
2022-11-26T01:37:45.839Z,15.51
2022-11-26T01:37:55.835Z,15.48
2022-11-26T01:38:05.842Z,15.46
2022-11-26T01:38:15.842Z,15.48
2022-11-26T01:38:25.841Z,15.48
2022-11-26T01:38:35.845Z,15.48
2022-11-26T01:38:45.855Z,15.48
2022-11-26T01:38:55.843Z,15.48
2022-11-26T01:39:05.845Z,15.48
2022-11-26T01:39:15.849Z,15.46
2022-11-26T01:39:25.846Z,15.46
2022-11-26T01:39:35.844Z,15.46
2022-11-26T01:39:45.845Z,15.48
2022-11-26T01:39:55.848Z,15.49
2022-11-26T01:40:05.849Z,15.48
2022-11-26T01:40:15.853Z,15.48
2022-11-26T01:40:25.851Z,15.48
2022-11-26T01:40:35.850Z,15.48
2022-11-26T01:40:45.850Z,15.48
2022-11-26T01:40:55.856Z,15.46
2022-11-26T01:41:05.851Z,15.48
2022-11-26T01:41:15.853Z,15.48
2022-11-26T01:41:25.855Z,15.48
2022-11-26T01:41:35.854Z,15.46
2022-11-26T01:41:45.852Z,15.48
2022-11-26T01:41:55.858Z,15.48
2022-11-26T01:42:05.858Z,15.48
2022-11-26T01:42:15.858Z,15.48
2022-11-26T01:42:25.862Z,15.48
2022-11-26T01:42:35.858Z,15.48
2022-11-26T01:42:45.859Z,15.46
2022-11-26T01:42:55.864Z,15.46
2022-11-26T01:43:05.861Z,15.48
2022-11-26T01:43:15.867Z,15.48
2022-11-26T01:43:25.866Z,15.48
2022-11-26T01:43:35.863Z,15.46
2022-11-26T01:43:45.902Z,15.48
2022-11-26T01:43:55.867Z,15.48
2022-11-26T01:44:05.866Z,15.48
2022-11-26T01:44:15.875Z,15.48
2022-11-26T01:44:25.872Z,15.46
2022-11-26T01:44:36.074Z,15.48
2022-11-26T01:44:45.880Z,15.46
2022-11-26T01:44:55.882Z,15.48
2022-11-26T01:45:05.873Z,15.48
2022-11-26T01:45:15.872Z,15.48
2022-11-26T01:45:25.934Z,15.46
2022-11-26T01:45:35.919Z,15.46
2022-11-26T01:45:45.938Z,15.46
2022-11-26T01:45:55.952Z,15.48
2022-11-26T01:46:05.972Z,15.46
2022-11-26T01:46:15.921Z,15.46
2022-11-26T01:46:25.877Z,15.48
2022-11-26T01:46:35.860Z,15.46
2022-11-26T01:46:45.880Z,15.46
2022-11-26T01:46:55.881Z,15.45
2022-11-26T01:47:05.864Z,15.46
2022-11-26T01:47:15.883Z,15.48
2022-11-26T01:47:25.883Z,15.46
2022-11-26T01:47:35.885Z,15.48
2022-11-26T01:47:45.883Z,15.46
2022-11-26T01:47:55.888Z,15.45
2022-11-26T01:48:05.888Z,15.48
2022-11-26T01:48:15.888Z,15.46
2022-11-26T01:48:25.870Z,15.46
2022-11-26T01:48:35.870Z,15.48
2022-11-26T01:48:45.894Z,15.46
2022-11-26T01:48:55.889Z,15.45
2022-11-26T01:49:05.886Z,15.45
2022-11-26T01:49:15.890Z,15.46
2022-11-26T01:49:25.888Z,15.45
2022-11-26T01:49:35.887Z,15.45
2022-11-26T01:49:45.892Z,15.46
2022-11-26T01:49:55.889Z,15.45
2022-11-26T01:50:05.890Z,15.45
2022-11-26T01:50:15.894Z,15.46
2022-11-26T01:50:25.891Z,15.46
2022-11-26T01:50:35.898Z,15.46
2022-11-26T01:50:45.894Z,15.46
2022-11-26T01:50:55.900Z,15.46
2022-11-26T01:51:05.897Z,15.45
2022-11-26T01:51:15.897Z,15.46
2022-11-26T01:51:25.897Z,15.48
2022-11-26T01:51:35.899Z,15.46
2022-11-26T01:51:45.901Z,15.46
2022-11-26T01:51:55.904Z,15.46
2022-11-26T01:52:05.902Z,15.46
2022-11-26T01:52:15.904Z,15.45
2022-11-26T01:52:25.905Z,15.46
2022-11-26T01:52:35.908Z,15.46
2022-11-26T01:52:45.909Z,15.46
2022-11-26T01:52:55.906Z,15.46
2022-11-26T01:53:05.903Z,15.46
2022-11-26T01:53:15.912Z,15.45
2022-11-26T01:53:25.906Z,15.46
2022-11-26T01:53:35.912Z,15.46
2022-11-26T01:53:45.913Z,15.45
2022-11-26T01:53:55.917Z,15.45
2022-11-26T01:54:05.911Z,15.45
2022-11-26T01:54:15.912Z,15.46
2022-11-26T01:54:25.917Z,15.46
2022-11-26T01:54:36.173Z,15.45
2022-11-26T01:54:45.917Z,15.46
2022-11-26T01:54:55.914Z,15.46
2022-11-26T01:55:05.914Z,15.45
2022-11-26T01:55:15.916Z,15.46
2022-11-26T01:55:25.924Z,15.45
2022-11-26T01:55:35.916Z,15.48
2022-11-26T01:55:45.916Z,15.45
2022-11-26T01:55:55.918Z,15.45
2022-11-26T01:56:05.918Z,15.46
2022-11-26T01:56:15.923Z,15.46
2022-11-26T01:56:25.919Z,15.46
2022-11-26T01:56:35.922Z,15.46
2022-11-26T01:56:45.921Z,15.45
2022-11-26T01:56:55.922Z,15.45
2022-11-26T01:57:05.922Z,15.43
2022-11-26T01:57:15.923Z,15.45
2022-11-26T01:57:25.924Z,15.45
2022-11-26T01:57:35.924Z,15.45
2022-11-26T01:57:45.933Z,15.43
2022-11-26T01:57:55.925Z,15.45
2022-11-26T01:58:05.910Z,15.45
2022-11-26T01:58:15.913Z,15.45
2022-11-26T01:58:25.928Z,15.46
2022-11-26T01:58:39.814Z,15.46
2022-11-26T01:58:45.930Z,15.45
2022-11-26T01:58:55.916Z,15.45
2022-11-26T01:59:05.930Z,15.45
2022-11-26T01:59:15.935Z,15.45
2022-11-26T01:59:25.933Z,15.45
2022-11-26T01:59:35.933Z,15.43
2022-11-26T01:59:45.960Z,15.45
2022-11-26T01:59:55.963Z,15.45
2022-11-26T02:00:05.938Z,15.45
2022-11-26T02:00:15.937Z,15.43
2022-11-26T02:00:25.938Z,15.43
2022-11-26T02:00:35.953Z,15.45
2022-11-26T02:00:46.065Z,15.43
2022-11-26T02:00:55.975Z,15.45
2022-11-26T02:01:05.977Z,15.43
2022-11-26T02:01:15.960Z,15.43
2022-11-26T02:01:26.040Z,15.45
2022-11-26T02:01:36.006Z,15.43
2022-11-26T02:01:46.137Z,15.43
2022-11-26T02:01:55.968Z,15.43
2022-11-26T02:02:06.003Z,15.45
2022-11-26T02:02:15.999Z,15.45
2022-11-26T02:02:25.965Z,15.45
2022-11-26T02:02:35.999Z,15.42
2022-11-26T02:02:46.007Z,15.45
2022-11-26T02:02:55.952Z,15.43
2022-11-26T02:03:05.948Z,15.45
2022-11-26T02:03:15.946Z,15.45
2022-11-26T02:03:25.953Z,15.46
2022-11-26T02:03:35.950Z,15.45
2022-11-26T02:03:45.951Z,15.45
2022-11-26T02:03:55.957Z,15.45
2022-11-26T02:04:05.956Z,15.43
2022-11-26T02:04:15.953Z,15.43
2022-11-26T02:04:25.964Z,15.43
2022-11-26T02:04:36.469Z,15.45
2022-11-26T02:04:45.956Z,15.43
2022-11-26T02:04:55.957Z,15.45
2022-11-26T02:05:05.960Z,15.45
2022-11-26T02:05:15.958Z,15.43
2022-11-26T02:05:25.971Z,15.45
2022-11-26T02:05:35.961Z,15.45
2022-11-26T02:05:45.962Z,15.43
2022-11-26T02:05:55.961Z,15.43
2022-11-26T02:06:05.971Z,15.45
2022-11-26T02:06:15.962Z,15.45
2022-11-26T02:06:25.961Z,15.45
2022-11-26T02:06:35.985Z,15.45
2022-11-26T02:06:45.967Z,15.45
2022-11-26T02:06:55.966Z,15.43
2022-11-26T02:07:05.970Z,15.45
2022-11-26T02:07:16.038Z,15.43
2022-11-26T02:07:26.024Z,15.45
2022-11-26T02:07:36.018Z,15.45
2022-11-26T02:07:46.045Z,15.43
2022-11-26T02:07:56.022Z,15.45
2022-11-26T02:08:05.958Z,15.45
2022-11-26T02:08:15.979Z,15.45
2022-11-26T02:08:25.976Z,15.45
2022-11-26T02:08:35.985Z,15.43
2022-11-26T02:08:45.959Z,15.45